sensor_id;sensor_type;location;lat;lon;timestamp;P1;durP1;ratioP1;P2;durP2;ratioP2
11386;SDS011;5748;53.102;8.456;2023-08-30T00:01:05;1.57;;;1.23;;
11386;SDS011;5748;53.102;8.456;2023-08-30T00:03:34;1.20;;;1.10;;
11386;SDS011;5748;53.102;8.456;2023-08-30T00:06:02;1.20;;;1.10;;
11386;SDS011;5748;53.102;8.456;2023-08-30T00:08:30;1.30;;;1.20;;
11386;SDS011;5748;53.102;8.456;2023-08-30T00:10:57;1.13;;;1.10;;
11386;SDS011;5748;53.102;8.456;2023-08-30T00:13:24;1.30;;;1.20;;
11386;SDS011;5748;53.102;8.456;2023-08-30T00:15:51;0.93;;;0.93;;
11386;SDS011;5748;53.102;8.456;2023-08-30T00:18:18;1.07;;;1.07;;
11386;SDS011;5748;53.102;8.456;2023-08-30T00:20:46;1.13;;;1.13;;
11386;SDS011;5748;53.102;8.456;2023-08-30T00:23:13;1.20;;;1.10;;
11386;SDS011;5748;53.102;8.456;2023-08-30T00:25:41;1.30;;;1.20;;
11386;SDS011;5748;53.102;8.456;2023-08-30T00:28:08;1.10;;;1.10;;
11386;SDS011;5748;53.102;8.456;2023-08-30T00:30:35;1.30;;;1.20;;
11386;SDS011;5748;53.102;8.456;2023-08-30T00:33:03;1.40;;;1.17;;
11386;SDS011;5748;53.102;8.456;2023-08-30T00:35:30;1.10;;;1.10;;
11386;SDS011;5748;53.102;8.456;2023-08-30T00:37:58;1.20;;;1.20;;
11386;SDS011;5748;53.102;8.456;2023-08-30T00:40:25;1.40;;;1.30;;
11386;SDS011;5748;53.102;8.456;2023-08-30T00:42:52;1.30;;;1.20;;
11386;SDS011;5748;53.102;8.456;2023-08-30T00:45:19;1.23;;;1.13;;
11386;SDS011;5748;53.102;8.456;2023-08-30T00:47:46;1.13;;;1.10;;
11386;SDS011;5748;53.102;8.456;2023-08-30T00:50:13;1.40;;;1.30;;
11386;SDS011;5748;53.102;8.456;2023-08-30T00:52:41;1.20;;;1.13;;
11386;SDS011;5748;53.102;8.456;2023-08-30T00:55:10;1.20;;;1.10;;
11386;SDS011;5748;53.102;8.456;2023-08-30T00:57:37;1.30;;;1.20;;
11386;SDS011;5748;53.102;8.456;2023-08-30T01:00:05;1.30;;;1.20;;
11386;SDS011;5748;53.102;8.456;2023-08-30T01:02:33;1.17;;;1.13;;
11386;SDS011;5748;53.102;8.456;2023-08-30T01:05:01;1.20;;;1.20;;
11386;SDS011;5748;53.102;8.456;2023-08-30T01:07:28;1.20;;;1.10;;
11386;SDS011;5748;53.102;8.456;2023-08-30T01:09:55;1.20;;;1.10;;
11386;SDS011;5748;53.102;8.456;2023-08-30T01:12:26;1.27;;;1.17;;
11386;SDS011;5748;53.102;8.456;2023-08-30T01:15:03;1.07;;;1.07;;
11386;SDS011;5748;53.102;8.456;2023-08-30T01:17:37;1.20;;;1.10;;
11386;SDS011;5748;53.102;8.456;2023-08-30T01:20:06;1.57;;;1.20;;
11386;SDS011;5748;53.102;8.456;2023-08-30T01:22:40;1.20;;;1.20;;
11386;SDS011;5748;53.102;8.456;2023-08-30T01:25:25;1.20;;;1.10;;
11386;SDS011;5748;53.102;8.456;2023-08-30T01:28:01;1.30;;;1.20;;
11386;SDS011;5748;53.102;8.456;2023-08-30T01:30:32;1.10;;;1.10;;
11386;SDS011;5748;53.102;8.456;2023-08-30T01:33:02;1.33;;;1.23;;
11386;SDS011;5748;53.102;8.456;2023-08-30T01:35:30;1.47;;;1.37;;
11386;SDS011;5748;53.102;8.456;2023-08-30T01:38:01;1.23;;;1.20;;
11386;SDS011;5748;53.102;8.456;2023-08-30T01:40:30;1.40;;;1.30;;
11386;SDS011;5748;53.102;8.456;2023-08-30T01:43:03;1.37;;;1.27;;
11386;SDS011;5748;53.102;8.456;2023-08-30T01:45:32;1.47;;;1.30;;
11386;SDS011;5748;53.102;8.456;2023-08-30T01:48:01;1.40;;;1.30;;
11386;SDS011;5748;53.102;8.456;2023-08-30T01:50:30;1.30;;;1.20;;
11386;SDS011;5748;53.102;8.456;2023-08-30T01:52:58;1.23;;;1.17;;
11386;SDS011;5748;53.102;8.456;2023-08-30T01:55:26;1.87;;;1.30;;
11386;SDS011;5748;53.102;8.456;2023-08-30T01:57:55;1.40;;;1.30;;
11386;SDS011;5748;53.102;8.456;2023-08-30T02:00:24;1.40;;;1.30;;
11386;SDS011;5748;53.102;8.456;2023-08-30T02:02:51;1.40;;;1.30;;
11386;SDS011;5748;53.102;8.456;2023-08-30T02:05:18;1.30;;;1.20;;
11386;SDS011;5748;53.102;8.456;2023-08-30T02:07:48;1.47;;;1.37;;
11386;SDS011;5748;53.102;8.456;2023-08-30T02:10:21;1.90;;;1.50;;
11386;SDS011;5748;53.102;8.456;2023-08-30T02:12:54;1.20;;;1.10;;
11386;SDS011;5748;53.102;8.456;2023-08-30T02:15:24;1.43;;;1.33;;
11386;SDS011;5748;53.102;8.456;2023-08-30T02:17:51;1.27;;;1.23;;
11386;SDS011;5748;53.102;8.456;2023-08-30T02:20:19;1.43;;;1.33;;
11386;SDS011;5748;53.102;8.456;2023-08-30T02:22:46;1.50;;;1.40;;
11386;SDS011;5748;53.102;8.456;2023-08-30T02:25:13;1.67;;;1.40;;
11386;SDS011;5748;53.102;8.456;2023-08-30T02:27:40;1.30;;;1.20;;
11386;SDS011;5748;53.102;8.456;2023-08-30T02:30:07;1.50;;;1.40;;
11386;SDS011;5748;53.102;8.456;2023-08-30T02:32:35;1.50;;;1.40;;
11386;SDS011;5748;53.102;8.456;2023-08-30T02:35:02;1.40;;;1.30;;
11386;SDS011;5748;53.102;8.456;2023-08-30T02:37:30;1.70;;;1.60;;
11386;SDS011;5748;53.102;8.456;2023-08-30T02:39:57;1.70;;;1.60;;
11386;SDS011;5748;53.102;8.456;2023-08-30T02:42:24;1.67;;;1.53;;
11386;SDS011;5748;53.102;8.456;2023-08-30T02:44:51;1.40;;;1.30;;
11386;SDS011;5748;53.102;8.456;2023-08-30T02:47:19;1.57;;;1.47;;
11386;SDS011;5748;53.102;8.456;2023-08-30T02:49:47;1.50;;;1.40;;
11386;SDS011;5748;53.102;8.456;2023-08-30T02:52:14;1.77;;;1.67;;
11386;SDS011;5748;53.102;8.456;2023-08-30T02:54:42;1.60;;;1.50;;
11386;SDS011;5748;53.102;8.456;2023-08-30T02:57:09;1.97;;;1.40;;
11386;SDS011;5748;53.102;8.456;2023-08-30T02:59:36;1.97;;;1.40;;
11386;SDS011;5748;53.102;8.456;2023-08-30T03:02:02;1.50;;;1.40;;
11386;SDS011;5748;53.102;8.456;2023-08-30T03:04:29;1.50;;;1.40;;
11386;SDS011;5748;53.102;8.456;2023-08-30T03:06:58;1.60;;;1.50;;
11386;SDS011;5748;53.102;8.456;2023-08-30T03:09:25;1.40;;;1.30;;
11386;SDS011;5748;53.102;8.456;2023-08-30T03:11:52;1.93;;;1.50;;
11386;SDS011;5748;53.102;8.456;2023-08-30T03:14:19;1.60;;;1.50;;
11386;SDS011;5748;53.102;8.456;2023-08-30T03:16:45;1.63;;;1.53;;
11386;SDS011;5748;53.102;8.456;2023-08-30T03:19:12;1.80;;;1.70;;
11386;SDS011;5748;53.102;8.456;2023-08-30T03:21:42;1.80;;;1.70;;
11386;SDS011;5748;53.102;8.456;2023-08-30T03:24:10;1.57;;;1.47;;
11386;SDS011;5748;53.102;8.456;2023-08-30T03:26:38;1.60;;;1.50;;
11386;SDS011;5748;53.102;8.456;2023-08-30T03:29:06;1.43;;;1.33;;
11386;SDS011;5748;53.102;8.456;2023-08-30T03:31:34;1.43;;;1.33;;
11386;SDS011;5748;53.102;8.456;2023-08-30T03:34:01;1.70;;;1.60;;
11386;SDS011;5748;53.102;8.456;2023-08-30T03:36:28;1.63;;;1.53;;
11386;SDS011;5748;53.102;8.456;2023-08-30T03:38:54;1.50;;;1.40;;
11386;SDS011;5748;53.102;8.456;2023-08-30T03:41:23;1.60;;;1.50;;
11386;SDS011;5748;53.102;8.456;2023-08-30T03:43:50;1.60;;;1.50;;
11386;SDS011;5748;53.102;8.456;2023-08-30T03:46:17;1.63;;;1.53;;
11386;SDS011;5748;53.102;8.456;2023-08-30T03:48:44;1.60;;;1.50;;
11386;SDS011;5748;53.102;8.456;2023-08-30T03:51:11;1.63;;;1.53;;
11386;SDS011;5748;53.102;8.456;2023-08-30T03:53:38;1.80;;;1.70;;
11386;SDS011;5748;53.102;8.456;2023-08-30T03:56:05;1.57;;;1.47;;
11386;SDS011;5748;53.102;8.456;2023-08-30T03:58:34;1.60;;;1.50;;
11386;SDS011;5748;53.102;8.456;2023-08-30T04:01:02;1.63;;;1.53;;
11386;SDS011;5748;53.102;8.456;2023-08-30T04:03:31;1.90;;;1.80;;
11386;SDS011;5748;53.102;8.456;2023-08-30T04:05:58;1.73;;;1.63;;
11386;SDS011;5748;53.102;8.456;2023-08-30T04:08:25;1.70;;;1.60;;
11386;SDS011;5748;53.102;8.456;2023-08-30T04:10:53;2.10;;;2.00;;
11386;SDS011;5748;53.102;8.456;2023-08-30T04:13:20;1.77;;;1.67;;
11386;SDS011;5748;53.102;8.456;2023-08-30T04:15:48;1.97;;;1.87;;
11386;SDS011;5748;53.102;8.456;2023-08-30T04:18:15;2.17;;;2.00;;
11386;SDS011;5748;53.102;8.456;2023-08-30T04:20:43;1.87;;;1.77;;
11386;SDS011;5748;53.102;8.456;2023-08-30T04:23:11;1.97;;;1.77;;
11386;SDS011;5748;53.102;8.456;2023-08-30T04:25:38;2.00;;;1.77;;
11386;SDS011;5748;53.102;8.456;2023-08-30T04:28:06;1.80;;;1.70;;
11386;SDS011;5748;53.102;8.456;2023-08-30T04:30:35;1.63;;;1.53;;
11386;SDS011;5748;53.102;8.456;2023-08-30T04:33:05;2.07;;;1.97;;
11386;SDS011;5748;53.102;8.456;2023-08-30T04:35:32;1.80;;;1.70;;
11386;SDS011;5748;53.102;8.456;2023-08-30T04:37:59;2.63;;;2.07;;
11386;SDS011;5748;53.102;8.456;2023-08-30T04:40:27;1.90;;;1.80;;
11386;SDS011;5748;53.102;8.456;2023-08-30T04:42:55;1.83;;;1.73;;
11386;SDS011;5748;53.102;8.456;2023-08-30T04:45:22;2.13;;;1.93;;
11386;SDS011;5748;53.102;8.456;2023-08-30T04:47:49;2.07;;;1.97;;
11386;SDS011;5748;53.102;8.456;2023-08-30T04:50:17;2.00;;;1.90;;
11386;SDS011;5748;53.102;8.456;2023-08-30T04:52:44;2.40;;;2.10;;
11386;SDS011;5748;53.102;8.456;2023-08-30T04:55:11;1.93;;;1.83;;
11386;SDS011;5748;53.102;8.456;2023-08-30T04:57:38;2.00;;;1.90;;
11386;SDS011;5748;53.102;8.456;2023-08-30T05:00:10;1.93;;;1.83;;
11386;SDS011;5748;53.102;8.456;2023-08-30T05:02:38;1.97;;;1.87;;
11386;SDS011;5748;53.102;8.456;2023-08-30T05:05:06;2.20;;;2.00;;
11386;SDS011;5748;53.102;8.456;2023-08-30T05:07:35;2.00;;;1.90;;
11386;SDS011;5748;53.102;8.456;2023-08-30T05:10:02;2.20;;;2.00;;
11386;SDS011;5748;53.102;8.456;2023-08-30T05:12:29;2.00;;;1.90;;
11386;SDS011;5748;53.102;8.456;2023-08-30T05:14:56;2.30;;;2.10;;
11386;SDS011;5748;53.102;8.456;2023-08-30T05:17:23;2.10;;;2.00;;
11386;SDS011;5748;53.102;8.456;2023-08-30T05:19:50;1.90;;;1.80;;
11386;SDS011;5748;53.102;8.456;2023-08-30T05:22:17;2.00;;;1.90;;
11386;SDS011;5748;53.102;8.456;2023-08-30T05:24:45;1.83;;;1.73;;
11386;SDS011;5748;53.102;8.456;2023-08-30T05:27:13;2.30;;;2.10;;
11386;SDS011;5748;53.102;8.456;2023-08-30T05:29:42;1.93;;;1.83;;
11386;SDS011;5748;53.102;8.456;2023-08-30T05:32:09;2.10;;;1.93;;
11386;SDS011;5748;53.102;8.456;2023-08-30T05:34:36;2.07;;;1.97;;
11386;SDS011;5748;53.102;8.456;2023-08-30T05:37:03;2.10;;;2.00;;
11386;SDS011;5748;53.102;8.456;2023-08-30T05:39:30;1.90;;;1.80;;
11386;SDS011;5748;53.102;8.456;2023-08-30T05:41:58;2.23;;;2.07;;
11386;SDS011;5748;53.102;8.456;2023-08-30T05:44:25;2.10;;;2.00;;
11386;SDS011;5748;53.102;8.456;2023-08-30T05:46:52;2.17;;;2.00;;
11386;SDS011;5748;53.102;8.456;2023-08-30T05:49:19;2.30;;;2.10;;
11386;SDS011;5748;53.102;8.456;2023-08-30T05:51:46;2.03;;;1.93;;
11386;SDS011;5748;53.102;8.456;2023-08-30T05:54:13;2.30;;;2.10;;
11386;SDS011;5748;53.102;8.456;2023-08-30T05:56:40;2.17;;;2.07;;
11386;SDS011;5748;53.102;8.456;2023-08-30T05:59:09;2.33;;;2.13;;
11386;SDS011;5748;53.102;8.456;2023-08-30T06:01:36;2.40;;;2.20;;
11386;SDS011;5748;53.102;8.456;2023-08-30T06:04:03;2.20;;;2.00;;
11386;SDS011;5748;53.102;8.456;2023-08-30T06:06:30;2.50;;;2.30;;
11386;SDS011;5748;53.102;8.456;2023-08-30T06:08:57;2.37;;;2.17;;
11386;SDS011;5748;53.102;8.456;2023-08-30T06:11:25;2.63;;;2.43;;
11386;SDS011;5748;53.102;8.456;2023-08-30T06:13:52;2.43;;;2.23;;
11386;SDS011;5748;53.102;8.456;2023-08-30T06:16:21;2.30;;;2.10;;
11386;SDS011;5748;53.102;8.456;2023-08-30T06:18:48;2.53;;;2.33;;
11386;SDS011;5748;53.102;8.456;2023-08-30T06:21:15;2.80;;;2.50;;
11386;SDS011;5748;53.102;8.456;2023-08-30T06:23:44;2.53;;;2.33;;
11386;SDS011;5748;53.102;8.456;2023-08-30T06:26:10;3.07;;;2.80;;
11386;SDS011;5748;53.102;8.456;2023-08-30T06:28:37;2.57;;;2.37;;
11386;SDS011;5748;53.102;8.456;2023-08-30T06:31:04;2.67;;;2.40;;
11386;SDS011;5748;53.102;8.456;2023-08-30T06:33:32;2.80;;;2.50;;
11386;SDS011;5748;53.102;8.456;2023-08-30T06:36:01;2.63;;;2.43;;
11386;SDS011;5748;53.102;8.456;2023-08-30T06:38:28;2.57;;;2.37;;
11386;SDS011;5748;53.102;8.456;2023-08-30T06:40:57;2.80;;;2.60;;
11386;SDS011;5748;53.102;8.456;2023-08-30T06:43:24;2.90;;;2.60;;
11386;SDS011;5748;53.102;8.456;2023-08-30T06:45:51;3.07;;;2.87;;
11386;SDS011;5748;53.102;8.456;2023-08-30T06:48:19;2.87;;;2.67;;
11386;SDS011;5748;53.102;8.456;2023-08-30T06:50:47;2.50;;;2.30;;
11386;SDS011;5748;53.102;8.456;2023-08-30T06:53:14;2.90;;;2.70;;
11386;SDS011;5748;53.102;8.456;2023-08-30T06:55:41;2.90;;;2.70;;
11386;SDS011;5748;53.102;8.456;2023-08-30T06:58:08;3.30;;;3.00;;
11386;SDS011;5748;53.102;8.456;2023-08-30T07:00:35;3.13;;;2.57;;
11386;SDS011;5748;53.102;8.456;2023-08-30T07:03:02;2.60;;;2.40;;
11386;SDS011;5748;53.102;8.456;2023-08-30T07:05:30;3.37;;;3.00;;
11386;SDS011;5748;53.102;8.456;2023-08-30T07:07:58;3.30;;;3.00;;
11386;SDS011;5748;53.102;8.456;2023-08-30T07:10:25;3.13;;;2.93;;
11386;SDS011;5748;53.102;8.456;2023-08-30T07:12:52;2.83;;;2.63;;
11386;SDS011;5748;53.102;8.456;2023-08-30T07:15:19;4.53;;;3.00;;
11386;SDS011;5748;53.102;8.456;2023-08-30T07:17:45;4.20;;;3.10;;
11386;SDS011;5748;53.102;8.456;2023-08-30T07:20:12;3.20;;;2.90;;
11386;SDS011;5748;53.102;8.456;2023-08-30T07:22:40;3.07;;;2.80;;
11386;SDS011;5748;53.102;8.456;2023-08-30T07:25:08;3.00;;;2.80;;
11386;SDS011;5748;53.102;8.456;2023-08-30T07:27:35;3.30;;;3.00;;
11386;SDS011;5748;53.102;8.456;2023-08-30T07:30:03;2.97;;;2.77;;
11386;SDS011;5748;53.102;8.456;2023-08-30T07:32:32;3.47;;;3.17;;
11386;SDS011;5748;53.102;8.456;2023-08-30T07:35:01;3.00;;;2.80;;
11386;SDS011;5748;53.102;8.456;2023-08-30T07:37:28;2.80;;;2.60;;
11386;SDS011;5748;53.102;8.456;2023-08-30T07:39:54;2.70;;;2.50;;
11386;SDS011;5748;53.102;8.456;2023-08-30T07:42:23;2.90;;;2.63;;
11386;SDS011;5748;53.102;8.456;2023-08-30T07:44:50;3.07;;;2.77;;
11386;SDS011;5748;53.102;8.456;2023-08-30T07:47:17;2.80;;;2.60;;
11386;SDS011;5748;53.102;8.456;2023-08-30T07:49:43;2.57;;;2.37;;
11386;SDS011;5748;53.102;8.456;2023-08-30T07:52:10;2.63;;;2.43;;
11386;SDS011;5748;53.102;8.456;2023-08-30T07:54:39;2.80;;;2.60;;
11386;SDS011;5748;53.102;8.456;2023-08-30T07:57:07;2.43;;;2.23;;
11386;SDS011;5748;53.102;8.456;2023-08-30T08:02:04;2.40;;;2.20;;
11386;SDS011;5748;53.102;8.456;2023-08-30T08:04:33;2.50;;;2.30;;
11386;SDS011;5748;53.102;8.456;2023-08-30T08:07:00;2.60;;;2.33;;
11386;SDS011;5748;53.102;8.456;2023-08-30T08:09:27;2.40;;;2.20;;
11386;SDS011;5748;53.102;8.456;2023-08-30T08:11:54;2.72;;;2.53;;
11386;SDS011;5748;53.102;8.456;2023-08-30T08:14:21;2.10;;;2.00;;
11386;SDS011;5748;53.102;8.456;2023-08-30T08:16:50;2.00;;;1.80;;
11386;SDS011;5748;53.102;8.456;2023-08-30T08:19:17;2.10;;;1.90;;
11386;SDS011;5748;53.102;8.456;2023-08-30T08:21:45;2.40;;;2.20;;
11386;SDS011;5748;53.102;8.456;2023-08-30T08:24:12;2.03;;;1.92;;
11386;SDS011;5748;53.102;8.456;2023-08-30T08:26:39;2.42;;;2.20;;
11386;SDS011;5748;53.102;8.456;2023-08-30T08:29:05;2.20;;;2.00;;
11386;SDS011;5748;53.102;8.456;2023-08-30T08:31:33;2.05;;;1.92;;
11386;SDS011;5748;53.102;8.456;2023-08-30T08:34:08;1.73;;;1.63;;
11386;SDS011;5748;53.102;8.456;2023-08-30T08:36:37;1.60;;;1.50;;
11386;SDS011;5748;53.102;8.456;2023-08-30T08:39:04;1.65;;;1.55;;
11386;SDS011;5748;53.102;8.456;2023-08-30T08:41:35;1.67;;;1.58;;
11386;SDS011;5748;53.102;8.456;2023-08-30T08:44:06;1.67;;;1.58;;
11386;SDS011;5748;53.102;8.456;2023-08-30T08:46:34;1.52;;;1.42;;
11386;SDS011;5748;53.102;8.456;2023-08-30T08:49:05;1.67;;;1.58;;
11386;SDS011;5748;53.102;8.456;2023-08-30T08:51:39;1.70;;;1.60;;
11386;SDS011;5748;53.102;8.456;2023-08-30T08:54:07;1.70;;;1.60;;
11386;SDS011;5748;53.102;8.456;2023-08-30T08:56:35;1.90;;;1.80;;
11386;SDS011;5748;53.102;8.456;2023-08-30T08:59:03;1.83;;;1.73;;
11386;SDS011;5748;53.102;8.456;2023-08-30T09:01:32;2.00;;;1.90;;
11386;SDS011;5748;53.102;8.456;2023-08-30T09:04:01;2.42;;;2.22;;
11386;SDS011;5748;53.102;8.456;2023-08-30T09:06:33;2.00;;;1.90;;
11386;SDS011;5748;53.102;8.456;2023-08-30T09:09:01;2.03;;;1.92;;
11386;SDS011;5748;53.102;8.456;2023-08-30T09:11:29;2.25;;;2.05;;
11386;SDS011;5748;53.102;8.456;2023-08-30T09:13:56;2.30;;;2.10;;
11386;SDS011;5748;53.102;8.456;2023-08-30T09:16:23;2.33;;;2.22;;
11386;SDS011;5748;53.102;8.456;2023-08-30T09:18:57;2.50;;;2.30;;
11386;SDS011;5748;53.102;8.456;2023-08-30T09:21:25;1.95;;;1.83;;
11386;SDS011;5748;53.102;8.456;2023-08-30T09:24:01;2.42;;;2.22;;
11386;SDS011;5748;53.102;8.456;2023-08-30T09:26:29;2.15;;;1.95;;
11386;SDS011;5748;53.102;8.456;2023-08-30T09:29:00;1.80;;;1.70;;
11386;SDS011;5748;53.102;8.456;2023-08-30T09:31:32;1.80;;;1.70;;
11386;SDS011;5748;53.102;8.456;2023-08-30T09:34:01;2.15;;;1.95;;
11386;SDS011;5748;53.102;8.456;2023-08-30T09:36:38;1.73;;;1.63;;
11386;SDS011;5748;53.102;8.456;2023-08-30T09:39:08;2.10;;;1.98;;
11386;SDS011;5748;53.102;8.456;2023-08-30T09:41:37;1.80;;;1.70;;
11386;SDS011;5748;53.102;8.456;2023-08-30T09:44:07;2.08;;;1.98;;
11386;SDS011;5748;53.102;8.456;2023-08-30T09:46:42;1.88;;;1.77;;
11386;SDS011;5748;53.102;8.456;2023-08-30T09:49:10;2.38;;;1.98;;
11386;SDS011;5748;53.102;8.456;2023-08-30T09:51:38;2.53;;;2.33;;
11386;SDS011;5748;53.102;8.456;2023-08-30T09:54:10;2.20;;;2.00;;
11386;SDS011;5748;53.102;8.456;2023-08-30T09:56:41;2.10;;;1.95;;
11386;SDS011;5748;53.102;8.456;2023-08-30T09:59:09;3.03;;;2.72;;
11386;SDS011;5748;53.102;8.456;2023-08-30T10:01:37;2.28;;;2.08;;
11386;SDS011;5748;53.102;8.456;2023-08-30T10:04:06;2.30;;;2.10;;
11386;SDS011;5748;53.102;8.456;2023-08-30T10:06:34;2.10;;;2.00;;
11386;SDS011;5748;53.102;8.456;2023-08-30T10:09:02;2.20;;;2.00;;
11386;SDS011;5748;53.102;8.456;2023-08-30T10:11:33;2.70;;;1.95;;
11386;SDS011;5748;53.102;8.456;2023-08-30T10:14:02;2.40;;;2.20;;
11386;SDS011;5748;53.102;8.456;2023-08-30T10:16:30;1.88;;;1.75;;
11386;SDS011;5748;53.102;8.456;2023-08-30T10:19:07;2.40;;;2.20;;
11386;SDS011;5748;53.102;8.456;2023-08-30T10:21:37;2.20;;;2.00;;
11386;SDS011;5748;53.102;8.456;2023-08-30T10:24:05;2.20;;;2.00;;
11386;SDS011;5748;53.102;8.456;2023-08-30T10:26:36;1.92;;;1.80;;
11386;SDS011;5748;53.102;8.456;2023-08-30T10:29:06;1.98;;;1.85;;
11386;SDS011;5748;53.102;8.456;2023-08-30T10:31:34;2.10;;;1.90;;
11386;SDS011;5748;53.102;8.456;2023-08-30T10:34:01;2.17;;;1.75;;
11386;SDS011;5748;53.102;8.456;2023-08-30T10:36:39;2.17;;;1.98;;
11386;SDS011;5748;53.102;8.456;2023-08-30T10:39:10;2.10;;;1.90;;
11386;SDS011;5748;53.102;8.456;2023-08-30T10:41:53;2.25;;;2.05;;
11386;SDS011;5748;53.102;8.456;2023-08-30T10:44:21;2.50;;;2.30;;
11386;SDS011;5748;53.102;8.456;2023-08-30T10:46:51;2.20;;;2.00;;
11386;SDS011;5748;53.102;8.456;2023-08-30T10:49:20;2.60;;;2.40;;
11386;SDS011;5748;53.102;8.456;2023-08-30T10:51:54;2.20;;;2.00;;
11386;SDS011;5748;53.102;8.456;2023-08-30T10:54:22;2.20;;;2.00;;
11386;SDS011;5748;53.102;8.456;2023-08-30T10:56:55;2.22;;;2.05;;
11386;SDS011;5748;53.102;8.456;2023-08-30T10:59:26;2.30;;;2.10;;
11386;SDS011;5748;53.102;8.456;2023-08-30T11:01:54;2.22;;;2.03;;
11386;SDS011;5748;53.102;8.456;2023-08-30T11:04:22;2.30;;;2.10;;
11386;SDS011;5748;53.102;8.456;2023-08-30T11:06:49;4.63;;;2.03;;
11386;SDS011;5748;53.102;8.456;2023-08-30T11:09:18;2.50;;;2.15;;
11386;SDS011;5748;53.102;8.456;2023-08-30T11:11:48;2.10;;;1.80;;
11386;SDS011;5748;53.102;8.456;2023-08-30T11:14:17;2.13;;;2.00;;
11386;SDS011;5748;53.102;8.456;2023-08-30T11:16:45;2.20;;;2.00;;
11386;SDS011;5748;53.102;8.456;2023-08-30T11:19:12;2.67;;;2.40;;
11386;SDS011;5748;53.102;8.456;2023-08-30T11:21:39;2.65;;;2.45;;
11386;SDS011;5748;53.102;8.456;2023-08-30T11:24:10;2.60;;;2.30;;
11386;SDS011;5748;53.102;8.456;2023-08-30T11:26:37;2.20;;;2.00;;
11386;SDS011;5748;53.102;8.456;2023-08-30T11:29:04;2.45;;;2.17;;
11386;SDS011;5748;53.102;8.456;2023-08-30T11:31:33;2.10;;;1.90;;
11386;SDS011;5748;53.102;8.456;2023-08-30T11:34:01;1.83;;;1.73;;
11386;SDS011;5748;53.102;8.456;2023-08-30T11:36:28;1.77;;;1.65;;
11386;SDS011;5748;53.102;8.456;2023-08-30T11:38:57;2.30;;;2.10;;
11386;SDS011;5748;53.102;8.456;2023-08-30T11:41:24;2.38;;;1.92;;
11386;SDS011;5748;53.102;8.456;2023-08-30T11:43:52;1.90;;;1.80;;
11386;SDS011;5748;53.102;8.456;2023-08-30T11:46:20;1.55;;;1.45;;
11386;SDS011;5748;53.102;8.456;2023-08-30T11:48:49;1.85;;;1.75;;
11386;SDS011;5748;53.102;8.456;2023-08-30T11:51:18;1.83;;;1.73;;
11386;SDS011;5748;53.102;8.456;2023-08-30T11:53:46;1.80;;;1.70;;
11386;SDS011;5748;53.102;8.456;2023-08-30T11:56:14;2.30;;;2.10;;
11386;SDS011;5748;53.102;8.456;2023-08-30T11:58:42;2.20;;;2.03;;
11386;SDS011;5748;53.102;8.456;2023-08-30T12:01:09;2.10;;;1.92;;
11386;SDS011;5748;53.102;8.456;2023-08-30T12:03:37;2.70;;;2.50;;
11386;SDS011;5748;53.102;8.456;2023-08-30T12:06:10;2.20;;;2.00;;
11386;SDS011;5748;53.102;8.456;2023-08-30T12:08:37;2.67;;;2.47;;
11386;SDS011;5748;53.102;8.456;2023-08-30T12:11:04;3.15;;;2.28;;
11386;SDS011;5748;53.102;8.456;2023-08-30T12:13:32;2.10;;;1.90;;
11386;SDS011;5748;53.102;8.456;2023-08-30T12:15:59;2.40;;;2.20;;
11386;SDS011;5748;53.102;8.456;2023-08-30T12:18:28;2.60;;;2.40;;
11386;SDS011;5748;53.102;8.456;2023-08-30T12:20:59;3.05;;;2.78;;
11386;SDS011;5748;53.102;8.456;2023-08-30T12:23:30;2.45;;;2.25;;
11386;SDS011;5748;53.102;8.456;2023-08-30T12:25:59;2.20;;;2.10;;
11386;SDS011;5748;53.102;8.456;2023-08-30T12:28:29;2.60;;;2.40;;
11386;SDS011;5748;53.102;8.456;2023-08-30T12:30:57;2.80;;;2.58;;
11386;SDS011;5748;53.102;8.456;2023-08-30T12:33:24;2.53;;;2.33;;
11386;SDS011;5748;53.102;8.456;2023-08-30T12:35:51;2.45;;;2.25;;
11386;SDS011;5748;53.102;8.456;2023-08-30T12:38:18;2.80;;;2.60;;
11386;SDS011;5748;53.102;8.456;2023-08-30T12:40:47;2.42;;;2.22;;
11386;SDS011;5748;53.102;8.456;2023-08-30T12:43:16;2.08;;;1.88;;
11386;SDS011;5748;53.102;8.456;2023-08-30T12:45:44;2.25;;;2.05;;
11386;SDS011;5748;53.102;8.456;2023-08-30T12:48:13;2.20;;;2.00;;
11386;SDS011;5748;53.102;8.456;2023-08-30T12:50:41;2.25;;;2.05;;
11386;SDS011;5748;53.102;8.456;2023-08-30T12:53:10;2.05;;;1.95;;
11386;SDS011;5748;53.102;8.456;2023-08-30T12:55:37;2.55;;;2.35;;
11386;SDS011;5748;53.102;8.456;2023-08-30T12:58:06;2.92;;;2.42;;
11386;SDS011;5748;53.102;8.456;2023-08-30T13:00:34;2.53;;;2.33;;
11386;SDS011;5748;53.102;8.456;2023-08-30T13:03:01;2.45;;;2.25;;
11386;SDS011;5748;53.102;8.456;2023-08-30T13:05:29;2.53;;;2.33;;
11386;SDS011;5748;53.102;8.456;2023-08-30T13:07:57;2.53;;;2.33;;
11386;SDS011;5748;53.102;8.456;2023-08-30T13:10:24;3.58;;;3.13;;
11386;SDS011;5748;53.102;8.456;2023-08-30T13:12:51;2.83;;;2.30;;
11386;SDS011;5748;53.102;8.456;2023-08-30T13:15:19;2.53;;;2.28;;
11386;SDS011;5748;53.102;8.456;2023-08-30T13:17:46;2.17;;;2.00;;
11386;SDS011;5748;53.102;8.456;2023-08-30T13:20:13;2.53;;;2.30;;
11386;SDS011;5748;53.102;8.456;2023-08-30T13:22:40;2.20;;;2.00;;
11386;SDS011;5748;53.102;8.456;2023-08-30T13:25:07;2.45;;;2.25;;
11386;SDS011;5748;53.102;8.456;2023-08-30T13:27:34;2.40;;;2.20;;
11386;SDS011;5748;53.102;8.456;2023-08-30T13:30:01;2.33;;;2.13;;
11386;SDS011;5748;53.102;8.456;2023-08-30T13:32:30;2.45;;;2.25;;
11386;SDS011;5748;53.102;8.456;2023-08-30T13:34:58;2.85;;;2.25;;
11386;SDS011;5748;53.102;8.456;2023-08-30T13:37:25;2.40;;;2.20;;
11386;SDS011;5748;53.102;8.456;2023-08-30T13:39:52;2.28;;;2.08;;
11386;SDS011;5748;53.102;8.456;2023-08-30T13:42:19;2.17;;;1.98;;
11386;SDS011;5748;53.102;8.456;2023-08-30T13:44:49;2.38;;;2.17;;
11386;SDS011;5748;53.102;8.456;2023-08-30T13:47:17;2.40;;;2.20;;
11386;SDS011;5748;53.102;8.456;2023-08-30T13:49:46;2.45;;;2.25;;
11386;SDS011;5748;53.102;8.456;2023-08-30T13:52:13;2.83;;;2.57;;
11386;SDS011;5748;53.102;8.456;2023-08-30T13:54:40;2.72;;;2.53;;
11386;SDS011;5748;53.102;8.456;2023-08-30T13:57:07;2.60;;;2.40;;
11386;SDS011;5748;53.102;8.456;2023-08-30T13:59:34;2.58;;;2.38;;
11386;SDS011;5748;53.102;8.456;2023-08-30T14:02:02;2.60;;;2.40;;
11386;SDS011;5748;53.102;8.456;2023-08-30T14:04:29;2.40;;;2.20;;
11386;SDS011;5748;53.102;8.456;2023-08-30T14:06:59;2.43;;;2.23;;
11386;SDS011;5748;53.102;8.456;2023-08-30T14:09:28;2.30;;;2.10;;
11386;SDS011;5748;53.102;8.456;2023-08-30T14:11:55;2.43;;;2.23;;
11386;SDS011;5748;53.102;8.456;2023-08-30T14:14:22;2.60;;;2.40;;
11386;SDS011;5748;53.102;8.456;2023-08-30T14:16:49;2.40;;;2.20;;
11386;SDS011;5748;53.102;8.456;2023-08-30T14:19:16;2.23;;;2.03;;
11386;SDS011;5748;53.102;8.456;2023-08-30T14:21:43;2.50;;;2.30;;
11386;SDS011;5748;53.102;8.456;2023-08-30T14:24:12;2.60;;;2.40;;
11386;SDS011;5748;53.102;8.456;2023-08-30T14:26:39;2.93;;;2.63;;
11386;SDS011;5748;53.102;8.456;2023-08-30T14:29:06;2.80;;;2.60;;
11386;SDS011;5748;53.102;8.456;2023-08-30T14:31:32;3.47;;;3.17;;
11386;SDS011;5748;53.102;8.456;2023-08-30T14:33:59;3.50;;;3.10;;
11386;SDS011;5748;53.102;8.456;2023-08-30T14:36:26;3.07;;;2.77;;
11386;SDS011;5748;53.102;8.456;2023-08-30T14:38:53;2.67;;;2.47;;
11386;SDS011;5748;53.102;8.456;2023-08-30T14:41:22;2.87;;;2.67;;
11386;SDS011;5748;53.102;8.456;2023-08-30T14:43:49;2.80;;;2.60;;
11386;SDS011;5748;53.102;8.456;2023-08-30T14:46:16;2.70;;;2.50;;
11386;SDS011;5748;53.102;8.456;2023-08-30T14:48:44;2.70;;;2.50;;
11386;SDS011;5748;53.102;8.456;2023-08-30T14:51:11;2.57;;;2.37;;
11386;SDS011;5748;53.102;8.456;2023-08-30T14:53:38;2.90;;;2.70;;
11386;SDS011;5748;53.102;8.456;2023-08-30T14:56:05;2.83;;;2.63;;
11386;SDS011;5748;53.102;8.456;2023-08-30T14:58:34;3.30;;;3.00;;
11386;SDS011;5748;53.102;8.456;2023-08-30T15:01:01;2.97;;;2.77;;
11386;SDS011;5748;53.102;8.456;2023-08-30T15:03:28;3.33;;;3.03;;
11386;SDS011;5748;53.102;8.456;2023-08-30T15:05:55;3.40;;;3.10;;
11386;SDS011;5748;53.102;8.456;2023-08-30T15:08:23;2.70;;;2.50;;